sensor_id;sensor_type;location;lat;lon;timestamp;P1;durP1;ratioP1;P2;durP2;ratioP2
16029;SDS011;34770;49.272;11.070;2023-04-03T00:01:53;3.03;;;2.67;;
16029;SDS011;34770;49.272;11.070;2023-04-03T00:04:18;3.10;;;2.90;;
16029;SDS011;34770;49.272;11.070;2023-04-03T00:06:43;2.47;;;2.33;;
16029;SDS011;34770;49.272;11.070;2023-04-03T00:09:08;2.80;;;2.60;;
16029;SDS011;34770;49.272;11.070;2023-04-03T00:11:34;2.73;;;2.50;;
16029;SDS011;34770;49.272;11.070;2023-04-03T00:13:59;3.03;;;2.73;;
16029;SDS011;34770;49.272;11.070;2023-04-03T00:16:25;3.00;;;2.77;;
16029;SDS011;34770;49.272;11.070;2023-04-03T00:18:50;3.23;;;2.97;;
16029;SDS011;34770;49.272;11.070;2023-04-03T00:21:15;4.13;;;2.97;;
16029;SDS011;34770;49.272;11.070;2023-04-03T00:23:41;2.90;;;2.70;;
16029;SDS011;34770;49.272;11.070;2023-04-03T00:26:06;2.80;;;2.60;;
16029;SDS011;34770;49.272;11.070;2023-04-03T00:28:31;3.10;;;2.90;;
16029;SDS011;34770;49.272;11.070;2023-04-03T00:30:57;2.50;;;2.30;;
16029;SDS011;34770;49.272;11.070;2023-04-03T00:33:22;3.47;;;2.87;;
16029;SDS011;34770;49.272;11.070;2023-04-03T00:35:49;3.30;;;3.10;;
16029;SDS011;34770;49.272;11.070;2023-04-03T00:38:15;4.20;;;3.10;;
16029;SDS011;34770;49.272;11.070;2023-04-03T00:40:44;3.80;;;3.50;;
16029;SDS011;34770;49.272;11.070;2023-04-03T00:43:11;4.33;;;3.03;;
16029;SDS011;34770;49.272;11.070;2023-04-03T00:45:37;3.00;;;2.80;;
16029;SDS011;34770;49.272;11.070;2023-04-03T00:48:05;3.50;;;3.20;;
16029;SDS011;34770;49.272;11.070;2023-04-03T00:50:31;3.30;;;3.00;;
16029;SDS011;34770;49.272;11.070;2023-04-03T00:52:57;3.90;;;2.73;;
16029;SDS011;34770;49.272;11.070;2023-04-03T00:55:23;3.83;;;3.63;;
16029;SDS011;34770;49.272;11.070;2023-04-03T00:57:49;5.70;;;3.63;;
16029;SDS011;34770;49.272;11.070;2023-04-03T01:00:16;3.27;;;2.73;;
16029;SDS011;34770;49.272;11.070;2023-04-03T01:02:42;3.10;;;2.80;;
16029;SDS011;34770;49.272;11.070;2023-04-03T01:05:07;3.33;;;3.10;;
16029;SDS011;34770;49.272;11.070;2023-04-03T01:07:33;4.60;;;2.97;;
16029;SDS011;34770;49.272;11.070;2023-04-03T01:10:00;5.63;;;2.93;;
16029;SDS011;34770;49.272;11.070;2023-04-03T01:12:30;3.07;;;2.87;;
16029;SDS011;34770;49.272;11.070;2023-04-03T01:14:56;3.07;;;2.87;;
16029;SDS011;34770;49.272;11.070;2023-04-03T01:17:32;2.73;;;2.53;;
16029;SDS011;34770;49.272;11.070;2023-04-03T01:20:49;3.40;;;3.10;;
16029;SDS011;34770;49.272;11.070;2023-04-03T01:25:27;4.50;;;2.77;;
16029;SDS011;34770;49.272;11.070;2023-04-03T01:27:53;3.17;;;2.97;;
16029;SDS011;34770;49.272;11.070;2023-04-03T01:30:19;3.10;;;2.80;;
16029;SDS011;34770;49.272;11.070;2023-04-03T01:32:45;2.90;;;2.80;;
16029;SDS011;34770;49.272;11.070;2023-04-03T01:35:10;3.33;;;3.13;;
16029;SDS011;34770;49.272;11.070;2023-04-03T01:37:36;2.57;;;2.37;;
16029;SDS011;34770;49.272;11.070;2023-04-03T01:40:01;3.00;;;2.80;;
16029;SDS011;34770;49.272;11.070;2023-04-03T01:42:27;2.73;;;2.53;;
16029;SDS011;34770;49.272;11.070;2023-04-03T01:44:52;3.10;;;2.90;;
16029;SDS011;34770;49.272;11.070;2023-04-03T01:47:17;3.30;;;3.10;;
16029;SDS011;34770;49.272;11.070;2023-04-03T01:49:42;3.33;;;3.03;;
16029;SDS011;34770;49.272;11.070;2023-04-03T01:52:08;6.00;;;3.67;;
16029;SDS011;34770;49.272;11.070;2023-04-03T01:54:33;4.77;;;2.73;;
16029;SDS011;34770;49.272;11.070;2023-04-03T01:56:58;2.70;;;2.50;;
16029;SDS011;34770;49.272;11.070;2023-04-03T01:59:24;3.83;;;2.60;;
16029;SDS011;34770;49.272;11.070;2023-04-03T02:01:49;3.27;;;2.33;;
16029;SDS011;34770;49.272;11.070;2023-04-03T02:04:15;2.60;;;2.40;;
16029;SDS011;34770;49.272;11.070;2023-04-03T02:06:40;2.47;;;2.30;;
16029;SDS011;34770;49.272;11.070;2023-04-03T02:09:06;2.90;;;2.70;;
16029;SDS011;34770;49.272;11.070;2023-04-03T02:11:31;2.50;;;2.40;;
16029;SDS011;34770;49.272;11.070;2023-04-03T02:13:57;4.00;;;2.63;;
16029;SDS011;34770;49.272;11.070;2023-04-03T02:16:22;2.97;;;2.77;;
16029;SDS011;34770;49.272;11.070;2023-04-03T02:18:47;3.90;;;3.40;;
16029;SDS011;34770;49.272;11.070;2023-04-03T02:21:13;4.63;;;3.00;;
16029;SDS011;34770;49.272;11.070;2023-04-03T02:23:38;3.10;;;2.90;;
16029;SDS011;34770;49.272;11.070;2023-04-03T02:26:04;6.10;;;3.00;;
16029;SDS011;34770;49.272;11.070;2023-04-03T02:28:30;3.13;;;2.93;;
16029;SDS011;34770;49.272;11.070;2023-04-03T02:30:56;3.30;;;3.10;;
16029;SDS011;34770;49.272;11.070;2023-04-03T02:33:21;3.40;;;3.10;;
16029;SDS011;34770;49.272;11.070;2023-04-03T02:35:46;2.83;;;2.63;;
16029;SDS011;34770;49.272;11.070;2023-04-03T02:38:18;3.00;;;2.77;;
16029;SDS011;34770;49.272;11.070;2023-04-03T02:40:43;3.40;;;3.00;;
16029;SDS011;34770;49.272;11.070;2023-04-03T02:43:08;2.80;;;2.60;;
16029;SDS011;34770;49.272;11.070;2023-04-03T02:45:33;3.17;;;2.93;;
16029;SDS011;34770;49.272;11.070;2023-04-03T02:47:59;5.40;;;2.83;;
16029;SDS011;34770;49.272;11.070;2023-04-03T02:50:24;2.83;;;2.63;;
16029;SDS011;34770;49.272;11.070;2023-04-03T02:52:49;4.03;;;2.77;;
16029;SDS011;34770;49.272;11.070;2023-04-03T02:55:15;3.13;;;2.93;;
16029;SDS011;34770;49.272;11.070;2023-04-03T02:57:41;2.90;;;2.70;;
16029;SDS011;34770;49.272;11.070;2023-04-03T03:00:06;3.90;;;3.50;;
16029;SDS011;34770;49.272;11.070;2023-04-03T03:02:32;2.93;;;2.73;;
16029;SDS011;34770;49.272;11.070;2023-04-03T03:04:57;2.97;;;2.77;;
16029;SDS011;34770;49.272;11.070;2023-04-03T03:07:22;3.87;;;3.10;;
16029;SDS011;34770;49.272;11.070;2023-04-03T03:09:47;3.07;;;2.87;;
16029;SDS011;34770;49.272;11.070;2023-04-03T03:12:13;3.33;;;3.03;;
16029;SDS011;34770;49.272;11.070;2023-04-03T03:14:38;3.07;;;2.87;;
16029;SDS011;34770;49.272;11.070;2023-04-03T03:17:03;3.30;;;2.97;;
16029;SDS011;34770;49.272;11.070;2023-04-03T03:19:29;3.23;;;3.03;;
16029;SDS011;34770;49.272;11.070;2023-04-03T03:21:54;3.20;;;3.00;;
16029;SDS011;34770;49.272;11.070;2023-04-03T03:24:20;2.70;;;2.50;;
16029;SDS011;34770;49.272;11.070;2023-04-03T03:26:45;3.57;;;3.37;;
16029;SDS011;34770;49.272;11.070;2023-04-03T03:29:10;3.10;;;2.80;;
16029;SDS011;34770;49.272;11.070;2023-04-03T03:31:36;3.07;;;2.87;;
16029;SDS011;34770;49.272;11.070;2023-04-03T03:34:01;3.20;;;3.00;;
16029;SDS011;34770;49.272;11.070;2023-04-03T03:36:26;2.77;;;2.57;;
16029;SDS011;34770;49.272;11.070;2023-04-03T03:38:51;3.07;;;2.87;;
16029;SDS011;34770;49.272;11.070;2023-04-03T03:41:17;3.03;;;2.83;;
16029;SDS011;34770;49.272;11.070;2023-04-03T03:43:42;2.77;;;2.57;;
16029;SDS011;34770;49.272;11.070;2023-04-03T03:46:07;2.80;;;2.60;;
16029;SDS011;34770;49.272;11.070;2023-04-03T03:48:33;3.47;;;3.17;;
16029;SDS011;34770;49.272;11.070;2023-04-03T03:50:58;2.73;;;2.60;;
16029;SDS011;34770;49.272;11.070;2023-04-03T03:53:23;2.77;;;2.57;;
16029;SDS011;34770;49.272;11.070;2023-04-03T03:55:49;3.37;;;3.07;;
16029;SDS011;34770;49.272;11.070;2023-04-03T03:58:14;3.00;;;2.50;;
16029;SDS011;34770;49.272;11.070;2023-04-03T04:00:40;7.47;;;3.13;;
16029;SDS011;34770;49.272;11.070;2023-04-03T04:03:05;4.53;;;3.43;;
16029;SDS011;34770;49.272;11.070;2023-04-03T04:05:30;3.07;;;2.87;;
16029;SDS011;34770;49.272;11.070;2023-04-03T04:07:55;2.97;;;2.77;;
16029;SDS011;34770;49.272;11.070;2023-04-03T04:10:21;3.17;;;2.97;;
16029;SDS011;34770;49.272;11.070;2023-04-03T04:12:46;2.90;;;2.70;;
16029;SDS011;34770;49.272;11.070;2023-04-03T04:15:11;3.23;;;3.03;;
16029;SDS011;34770;49.272;11.070;2023-04-03T04:17:37;3.83;;;3.47;;
16029;SDS011;34770;49.272;11.070;2023-04-03T04:20:03;3.10;;;2.90;;
16029;SDS011;34770;49.272;11.070;2023-04-03T04:22:29;3.53;;;3.23;;
16029;SDS011;34770;49.272;11.070;2023-04-03T04:24:55;3.33;;;3.03;;
16029;SDS011;34770;49.272;11.070;2023-04-03T04:27:20;3.17;;;2.97;;
16029;SDS011;34770;49.272;11.070;2023-04-03T04:29:45;2.80;;;2.60;;
16029;SDS011;34770;49.272;11.070;2023-04-03T04:32:10;3.20;;;3.00;;
16029;SDS011;34770;49.272;11.070;2023-04-03T04:34:35;3.00;;;2.80;;
16029;SDS011;34770;49.272;11.070;2023-04-03T04:37:01;3.27;;;3.03;;
16029;SDS011;34770;49.272;11.070;2023-04-03T04:39:26;3.20;;;3.00;;
16029;SDS011;34770;49.272;11.070;2023-04-03T04:41:51;4.23;;;3.33;;
16029;SDS011;34770;49.272;11.070;2023-04-03T04:44:17;3.80;;;3.50;;
16029;SDS011;34770;49.272;11.070;2023-04-03T04:46:42;5.73;;;2.80;;
16029;SDS011;34770;49.272;11.070;2023-04-03T04:49:07;4.17;;;3.27;;
16029;SDS011;34770;49.272;11.070;2023-04-03T04:51:33;3.27;;;3.03;;
16029;SDS011;34770;49.272;11.070;2023-04-03T04:53:58;2.80;;;2.60;;
16029;SDS011;34770;49.272;11.070;2023-04-03T04:56:23;4.53;;;3.20;;
16029;SDS011;34770;49.272;11.070;2023-04-03T04:58:48;3.00;;;2.80;;
16029;SDS011;34770;49.272;11.070;2023-04-03T05:01:14;3.57;;;2.70;;
16029;SDS011;34770;49.272;11.070;2023-04-03T05:03:39;4.80;;;2.80;;
16029;SDS011;34770;49.272;11.070;2023-04-03T05:06:04;3.33;;;3.03;;
16029;SDS011;34770;49.272;11.070;2023-04-03T05:08:30;2.70;;;2.50;;
16029;SDS011;34770;49.272;11.070;2023-04-03T05:10:55;3.10;;;2.70;;
16029;SDS011;34770;49.272;11.070;2023-04-03T05:13:21;3.30;;;3.10;;
16029;SDS011;34770;49.272;11.070;2023-04-03T05:15:46;2.93;;;2.73;;
16029;SDS011;34770;49.272;11.070;2023-04-03T05:18:11;4.07;;;2.60;;
16029;SDS011;34770;49.272;11.070;2023-04-03T05:20:37;3.20;;;3.00;;
16029;SDS011;34770;49.272;11.070;2023-04-03T05:23:02;2.87;;;2.53;;
16029;SDS011;34770;49.272;11.070;2023-04-03T05:25:28;2.97;;;2.77;;
16029;SDS011;34770;49.272;11.070;2023-04-03T05:27:53;3.00;;;2.80;;
16029;SDS011;34770;49.272;11.070;2023-04-03T05:30:18;3.33;;;3.00;;
16029;SDS011;34770;49.272;11.070;2023-04-03T05:32:43;2.77;;;2.57;;
16029;SDS011;34770;49.272;11.070;2023-04-03T05:35:09;3.20;;;3.00;;
16029;SDS011;34770;49.272;11.070;2023-04-03T05:37:35;4.07;;;3.20;;
16029;SDS011;34770;49.272;11.070;2023-04-03T05:40:00;2.63;;;2.50;;
16029;SDS011;34770;49.272;11.070;2023-04-03T05:42:26;2.73;;;2.53;;
16029;SDS011;34770;49.272;11.070;2023-04-03T05:44:51;5.40;;;3.20;;
16029;SDS011;34770;49.272;11.070;2023-04-03T05:47:17;3.20;;;3.00;;
16029;SDS011;34770;49.272;11.070;2023-04-03T05:49:42;3.43;;;3.13;;
16029;SDS011;34770;49.272;11.070;2023-04-03T05:52:33;3.13;;;2.80;;
16029;SDS011;34770;49.272;11.070;2023-04-03T05:54:55;4.00;;;3.60;;
16029;SDS011;34770;49.272;11.070;2023-04-03T05:57:21;4.00;;;3.60;;
16029;SDS011;34770;49.272;11.070;2023-04-03T05:59:46;3.47;;;2.97;;
16029;SDS011;34770;49.272;11.070;2023-04-03T06:02:12;4.43;;;3.50;;
16029;SDS011;34770;49.272;11.070;2023-04-03T06:04:38;3.43;;;3.23;;
16029;SDS011;34770;49.272;11.070;2023-04-03T06:07:03;4.67;;;3.50;;
16029;SDS011;34770;49.272;11.070;2023-04-03T06:09:28;3.10;;;2.90;;
16029;SDS011;34770;49.272;11.070;2023-04-03T06:11:54;3.13;;;2.93;;
16029;SDS011;34770;49.272;11.070;2023-04-03T06:14:19;4.13;;;3.83;;
16029;SDS011;34770;49.272;11.070;2023-04-03T06:16:45;3.97;;;3.67;;
16029;SDS011;34770;49.272;11.070;2023-04-03T06:19:11;3.73;;;3.43;;
16029;SDS011;34770;49.272;11.070;2023-04-03T06:21:36;3.97;;;3.10;;
16029;SDS011;34770;49.272;11.070;2023-04-03T06:24:05;6.40;;;3.97;;
16029;SDS011;34770;49.272;11.070;2023-04-03T06:26:31;4.20;;;3.67;;
16029;SDS011;34770;49.272;11.070;2023-04-03T06:28:56;4.80;;;3.30;;
16029;SDS011;34770;49.272;11.070;2023-04-03T06:31:22;5.13;;;3.40;;
16029;SDS011;34770;49.272;11.070;2023-04-03T06:33:47;3.73;;;3.40;;
16029;SDS011;34770;49.272;11.070;2023-04-03T06:36:12;6.43;;;4.10;;
16029;SDS011;34770;49.272;11.070;2023-04-03T06:38:38;5.77;;;3.40;;
16029;SDS011;34770;49.272;11.070;2023-04-03T06:41:03;6.27;;;3.73;;
16029;SDS011;34770;49.272;11.070;2023-04-03T06:43:29;5.20;;;3.40;;
16029;SDS011;34770;49.272;11.070;2023-04-03T06:45:56;4.43;;;4.03;;
16029;SDS011;34770;49.272;11.070;2023-04-03T06:48:21;4.00;;;3.70;;
16029;SDS011;34770;49.272;11.070;2023-04-03T06:50:46;3.20;;;2.97;;
16029;SDS011;34770;49.272;11.070;2023-04-03T06:53:12;4.50;;;3.77;;
16029;SDS011;34770;49.272;11.070;2023-04-03T06:55:37;6.33;;;4.30;;
16029;SDS011;34770;49.272;11.070;2023-04-03T06:58:02;3.83;;;3.53;;
16029;SDS011;34770;49.272;11.070;2023-04-03T07:00:28;4.33;;;3.93;;
16029;SDS011;34770;49.272;11.070;2023-04-03T07:02:53;7.93;;;4.17;;
16029;SDS011;34770;49.272;11.070;2023-04-03T07:05:19;3.73;;;3.43;;
16029;SDS011;34770;49.272;11.070;2023-04-03T07:07:44;3.33;;;3.13;;
16029;SDS011;34770;49.272;11.070;2023-04-03T07:10:09;5.97;;;3.67;;
16029;SDS011;34770;49.272;11.070;2023-04-03T07:12:35;5.07;;;3.70;;
16029;SDS011;34770;49.272;11.070;2023-04-03T07:15:01;5.83;;;4.00;;
16029;SDS011;34770;49.272;11.070;2023-04-03T07:17:26;4.30;;;3.10;;
16029;SDS011;34770;49.272;11.070;2023-04-03T07:19:51;4.90;;;3.17;;
16029;SDS011;34770;49.272;11.070;2023-04-03T07:22:17;4.77;;;3.43;;
16029;SDS011;34770;49.272;11.070;2023-04-03T07:24:42;3.57;;;2.97;;
16029;SDS011;34770;49.272;11.070;2023-04-03T07:27:08;3.60;;;3.30;;
16029;SDS011;34770;49.272;11.070;2023-04-03T07:29:33;5.40;;;3.57;;
16029;SDS011;34770;49.272;11.070;2023-04-03T07:31:59;3.30;;;3.00;;
16029;SDS011;34770;49.272;11.070;2023-04-03T07:34:25;5.03;;;4.53;;
16029;SDS011;34770;49.272;11.070;2023-04-03T07:36:55;4.10;;;3.40;;
16029;SDS011;34770;49.272;11.070;2023-04-03T07:39:21;3.93;;;3.00;;
16029;SDS011;34770;49.272;11.070;2023-04-03T07:41:46;8.27;;;3.83;;
16029;SDS011;34770;49.272;11.070;2023-04-03T07:44:12;4.60;;;3.77;;
16029;SDS011;34770;49.272;11.070;2023-04-03T07:46:37;3.87;;;3.10;;
16029;SDS011;34770;49.272;11.070;2023-04-03T07:49:03;6.20;;;3.80;;
16029;SDS011;34770;49.272;11.070;2023-04-03T07:51:28;9.53;;;3.60;;
16029;SDS011;34770;49.272;11.070;2023-04-03T07:53:54;9.63;;;3.53;;
16029;SDS011;34770;49.272;11.070;2023-04-03T07:56:20;7.03;;;3.10;;
16029;SDS011;34770;49.272;11.070;2023-04-03T07:58:45;5.27;;;3.50;;
16029;SDS011;34770;49.272;11.070;2023-04-03T08:01:11;5.03;;;3.13;;
16029;SDS011;34770;49.272;11.070;2023-04-03T08:03:36;5.47;;;3.13;;
16029;SDS011;34770;49.272;11.070;2023-04-03T08:06:03;3.97;;;3.00;;
16029;SDS011;34770;49.272;11.070;2023-04-03T08:08:29;3.90;;;3.50;;
16029;SDS011;34770;49.272;11.070;2023-04-03T08:10:58;3.57;;;2.90;;
16029;SDS011;34770;49.272;11.070;2023-04-03T08:13:24;7.43;;;3.30;;
16029;SDS011;34770;49.272;11.070;2023-04-03T08:15:49;5.53;;;4.10;;
16029;SDS011;34770;49.272;11.070;2023-04-03T08:18:15;5.20;;;4.60;;
16029;SDS011;34770;49.272;11.070;2023-04-03T08:20:41;5.10;;;2.77;;
16029;SDS011;34770;49.272;11.070;2023-04-03T08:23:07;3.20;;;2.80;;
16029;SDS011;34770;49.272;11.070;2023-04-03T08:25:38;6.30;;;3.47;;
16029;SDS011;34770;49.272;11.070;2023-04-03T08:28:04;5.17;;;3.03;;
16029;SDS011;34770;49.272;11.070;2023-04-03T08:30:29;3.00;;;2.67;;
16029;SDS011;34770;49.272;11.070;2023-04-03T08:32:55;4.67;;;4.27;;
16029;SDS011;34770;49.272;11.070;2023-04-03T08:35:20;4.13;;;3.80;;
16029;SDS011;34770;49.272;11.070;2023-04-03T08:37:45;6.43;;;3.70;;
16029;SDS011;34770;49.272;11.070;2023-04-03T08:40:13;6.90;;;3.07;;
16029;SDS011;34770;49.272;11.070;2023-04-03T08:42:54;5.53;;;3.47;;
16029;SDS011;34770;49.272;11.070;2023-04-03T08:45:26;4.30;;;2.70;;
16029;SDS011;34770;49.272;11.070;2023-04-03T08:48:04;5.53;;;3.30;;
16029;SDS011;34770;49.272;11.070;2023-04-03T08:50:33;7.87;;;3.10;;
16029;SDS011;34770;49.272;11.070;2023-04-03T08:52:59;4.20;;;3.20;;
16029;SDS011;34770;49.272;11.070;2023-04-03T08:55:27;4.63;;;2.63;;
16029;SDS011;34770;49.272;11.070;2023-04-03T08:57:57;3.13;;;2.83;;
16029;SDS011;34770;49.272;11.070;2023-04-03T09:00:24;2.67;;;2.43;;
16029;SDS011;34770;49.272;11.070;2023-04-03T09:02:51;3.57;;;2.77;;
16029;SDS011;34770;49.272;11.070;2023-04-03T09:05:17;3.57;;;2.30;;
16029;SDS011;34770;49.272;11.070;2023-04-03T09:07:53;2.97;;;2.63;;
16029;SDS011;34770;49.272;11.070;2023-04-03T09:10:23;4.13;;;2.50;;
16029;SDS011;34770;49.272;11.070;2023-04-03T09:13:25;2.35;;;2.22;;
16029;SDS011;34770;49.272;11.070;2023-04-03T09:15:43;5.75;;;2.75;;
16029;SDS011;34770;49.272;11.070;2023-04-03T09:18:52;2.92;;;2.72;;
16029;SDS011;34770;49.272;11.070;2023-04-03T09:26:01;5.78;;;2.80;;
16029;SDS011;34770;49.272;11.070;2023-04-03T09:28:28;4.20;;;2.30;;
16029;SDS011;34770;49.272;11.070;2023-04-03T09:30:55;3.38;;;2.83;;
16029;SDS011;34770;49.272;11.070;2023-04-03T09:33:20;2.67;;;2.47;;
16029;SDS011;34770;49.272;11.070;2023-04-03T09:35:46;3.75;;;2.55;;
16029;SDS011;34770;49.272;11.070;2023-04-03T09:40:42;2.88;;;2.55;;
16029;SDS011;34770;49.272;11.070;2023-04-03T09:45:42;2.85;;;2.65;;
16029;SDS011;34770;49.272;11.070;2023-04-03T09:50:33;2.30;;;2.20;;
16029;SDS011;34770;49.272;11.070;2023-04-03T09:53:01;3.08;;;2.88;;
16029;SDS011;34770;49.272;11.070;2023-04-03T09:55:29;3.05;;;2.28;;
16029;SDS011;34770;49.272;11.070;2023-04-03T09:57:55;2.88;;;2.67;;
16029;SDS011;34770;49.272;11.070;2023-04-03T10:00:23;4.65;;;2.22;;
16029;SDS011;34770;49.272;11.070;2023-04-03T10:02:51;2.60;;;2.40;;
16029;SDS011;34770;49.272;11.070;2023-04-03T10:07:51;2.95;;;2.65;;
16029;SDS011;34770;49.272;11.070;2023-04-03T10:10:20;3.85;;;3.15;;
16029;SDS011;34770;49.272;11.070;2023-04-03T10:12:48;4.63;;;3.28;;
16029;SDS011;34770;49.272;11.070;2023-04-03T10:15:15;3.33;;;2.37;;
16029;SDS011;34770;49.272;11.070;2023-04-03T10:20:26;3.80;;;2.63;;
16029;SDS011;34770;49.272;11.070;2023-04-03T10:25:23;2.55;;;2.35;;
16029;SDS011;34770;49.272;11.070;2023-04-03T10:28:02;2.33;;;2.10;;
16029;SDS011;34770;49.272;11.070;2023-04-03T10:33:11;3.50;;;2.50;;
16029;SDS011;34770;49.272;11.070;2023-04-03T10:43:28;4.25;;;2.58;;
16029;SDS011;34770;49.272;11.070;2023-04-03T10:48:29;3.70;;;2.50;;
16029;SDS011;34770;49.272;11.070;2023-04-03T10:51:08;2.60;;;2.42;;
16029;SDS011;34770;49.272;11.070;2023-04-03T10:53:43;2.90;;;2.38;;
16029;SDS011;34770;49.272;11.070;2023-04-03T10:58:36;2.17;;;2.08;;
16029;SDS011;34770;49.272;11.070;2023-04-03T11:01:08;2.60;;;2.40;;
16029;SDS011;34770;49.272;11.070;2023-04-03T11:03:53;3.55;;;2.40;;
16029;SDS011;34770;49.272;11.070;2023-04-03T11:06:19;2.97;;;2.20;;
16029;SDS011;34770;49.272;11.070;2023-04-03T11:08:49;4.43;;;3.10;;
16029;SDS011;34770;49.272;11.070;2023-04-03T11:11:17;3.13;;;2.35;;
16029;SDS011;34770;49.272;11.070;2023-04-03T11:13:49;2.63;;;2.38;;
16029;SDS011;34770;49.272;11.070;2023-04-03T11:16:17;2.58;;;2.38;;
16029;SDS011;34770;49.272;11.070;2023-04-03T11:18:46;1.88;;;1.70;;
16029;SDS011;34770;49.272;11.070;2023-04-03T11:21:14;2.55;;;2.35;;
16029;SDS011;34770;49.272;11.070;2023-04-03T11:23:43;2.17;;;2.00;;
16029;SDS011;34770;49.272;11.070;2023-04-03T11:26:16;2.40;;;2.20;;
16029;SDS011;34770;49.272;11.070;2023-04-03T11:28:41;2.50;;;2.30;;
16029;SDS011;34770;49.272;11.070;2023-04-03T11:36:10;2.17;;;1.90;;
16029;SDS011;34770;49.272;11.070;2023-04-03T11:38:38;5.53;;;2.00;;
16029;SDS011;34770;49.272;11.070;2023-04-03T11:41:07;4.22;;;2.25;;
16029;SDS011;34770;49.272;11.070;2023-04-03T11:43:32;3.03;;;2.25;;
16029;SDS011;34770;49.272;11.070;2023-04-03T11:46:02;2.50;;;2.30;;
16029;SDS011;34770;49.272;11.070;2023-04-03T11:50:53;3.50;;;2.63;;
16029;SDS011;34770;49.272;11.070;2023-04-03T11:53:30;8.75;;;5.45;;
16029;SDS011;34770;49.272;11.070;2023-04-03T11:55:56;5.65;;;2.80;;
16029;SDS011;34770;49.272;11.070;2023-04-03T11:58:26;3.30;;;2.97;;
16029;SDS011;34770;49.272;11.070;2023-04-03T12:00:54;3.83;;;2.40;;
16029;SDS011;34770;49.272;11.070;2023-04-03T12:04:06;2.78;;;2.30;;
16029;SDS011;34770;49.272;11.070;2023-04-03T12:13:38;2.28;;;2.17;;
16029;SDS011;34770;49.272;11.070;2023-04-03T12:16:08;3.35;;;2.78;;
16029;SDS011;34770;49.272;11.070;2023-04-03T12:21:22;2.25;;;1.90;;
16029;SDS011;34770;49.272;11.070;2023-04-03T12:29:17;2.58;;;2.20;;
16029;SDS011;34770;49.272;11.070;2023-04-03T12:31:46;4.57;;;2.42;;
16029;SDS011;34770;49.272;11.070;2023-04-03T12:39:42;3.70;;;1.90;;
16029;SDS011;34770;49.272;11.070;2023-04-03T12:44:47;2.47;;;2.28;;
16029;SDS011;34770;49.272;11.070;2023-04-03T12:47:26;2.30;;;2.10;;
16029;SDS011;34770;49.272;11.070;2023-04-03T12:49:52;2.67;;;2.00;;
16029;SDS011;34770;49.272;11.070;2023-04-03T12:54:46;2.05;;;1.83;;
16029;SDS011;34770;49.272;11.070;2023-04-03T12:57:24;1.73;;;1.63;;
16029;SDS011;34770;49.272;11.070;2023-04-03T12:59:50;2.42;;;1.83;;
16029;SDS011;34770;49.272;11.070;2023-04-03T13:02:26;2.08;;;1.88;;
16029;SDS011;34770;49.272;11.070;2023-04-03T13:04:52;2.13;;;2.00;;
16029;SDS011;34770;49.272;11.070;2023-04-03T13:07:25;2.88;;;2.20;;
16029;SDS011;34770;49.272;11.070;2023-04-03T13:10:00;1.83;;;1.67;;
16029;SDS011;34770;49.272;11.070;2023-04-03T13:12:26;2.40;;;2.15;;
16029;SDS011;34770;49.272;11.070;2023-04-03T13:14:55;1.58;;;1.48;;
16029;SDS011;34770;49.272;11.070;2023-04-03T13:17:22;2.22;;;2.10;;
16029;SDS011;34770;49.272;11.070;2023-04-03T13:19:47;3.80;;;2.05;;
16029;SDS011;34770;49.272;11.070;2023-04-03T13:24:57;2.22;;;1.60;;
16029;SDS011;34770;49.272;11.070;2023-04-03T13:27:23;2.38;;;1.60;;
16029;SDS011;34770;49.272;11.070;2023-04-03T13:29:49;2.33;;;1.80;;
16029;SDS011;34770;49.272;11.070;2023-04-03T13:32:33;2.95;;;2.17;;
16029;SDS011;34770;49.272;11.070;2023-04-03T13:34:58;1.73;;;1.63;;
16029;SDS011;34770;49.272;11.070;2023-04-03T13:37:28;1.70;;;1.60;;
16029;SDS011;34770;49.272;11.070;2023-04-03T13:40:12;3.17;;;2.00;;
16029;SDS011;34770;49.272;11.070;2023-04-03T13:42:38;3.95;;;1.60;;
16029;SDS011;34770;49.272;11.070;2023-04-03T13:47:38;2.00;;;1.80;;
16029;SDS011;34770;49.272;11.070;2023-04-03T13:50:13;2.95;;;1.48;;
16029;SDS011;34770;49.272;11.070;2023-04-03T13:52:42;1.55;;;1.45;;
16029;SDS011;34770;49.272;11.070;2023-04-03T13:55:52;2.33;;;1.73;;
16029;SDS011;34770;49.272;11.070;2023-04-03T13:58:02;2.30;;;1.70;;
16029;SDS011;34770;49.272;11.070;2023-04-03T14:02:54;1.90;;;1.45;;
16029;SDS011;34770;49.272;11.070;2023-04-03T14:05:21;1.80;;;1.70;;
16029;SDS011;34770;49.272;11.070;2023-04-03T14:07:48;1.35;;;1.25;;
16029;SDS011;34770;49.272;11.070;2023-04-03T14:10:13;1.50;;;1.40;;
16029;SDS011;34770;49.272;11.070;2023-04-03T14:12:39;1.70;;;1.60;;
16029;SDS011;34770;49.272;11.070;2023-04-03T14:15:10;2.85;;;1.80;;
16029;SDS011;34770;49.272;11.070;2023-04-03T14:17:37;1.40;;;1.30;;
16029;SDS011;34770;49.272;11.070;2023-04-03T14:20:02;2.20;;;1.73;;
16029;SDS011;34770;49.272;11.070;2023-04-03T14:22:29;2.08;;;1.75;;
16029;SDS011;34770;49.272;11.070;2023-04-03T14:24:55;2.20;;;1.40;;
16029;SDS011;34770;49.272;11.070;2023-04-03T14:29:46;2.38;;;2.10;;
16029;SDS011;34770;49.272;11.070;2023-04-03T14:32:12;2.55;;;1.85;;
16029;SDS011;34770;49.272;11.070;2023-04-03T14:34:38;2.17;;;1.98;;
16029;SDS011;34770;49.272;11.070;2023-04-03T14:37:04;1.48;;;1.38;;
16029;SDS011;34770;49.272;11.070;2023-04-03T14:39:29;2.33;;;2.13;;
16029;SDS011;34770;49.272;11.070;2023-04-03T14:41:55;1.80;;;1.52;;
16029;SDS011;34770;49.272;11.070;2023-04-03T14:44:20;3.70;;;1.67;;
16029;SDS011;34770;49.272;11.070;2023-04-03T14:46:45;1.85;;;1.60;;
16029;SDS011;34770;49.272;11.070;2023-04-03T14:49:15;2.15;;;1.83;;
16029;SDS011;34770;49.272;11.070;2023-04-03T14:51:40;2.33;;;1.90;;
16029;SDS011;34770;49.272;11.070;2023-04-03T14:54:09;2.10;;;1.90;;
16029;SDS011;34770;49.272;11.070;2023-04-03T14:56:36;2.00;;;1.80;;
16029;SDS011;34770;49.272;11.070;2023-04-03T14:59:01;2.72;;;1.80;;
16029;SDS011;34770;49.272;11.070;2023-04-03T15:01:27;1.88;;;1.77;;
16029;SDS011;34770;49.272;11.070;2023-04-03T15:03:53;3.00;;;1.90;;
16029;SDS011;34770;49.272;11.070;2023-04-03T15:06:18;1.63;;;1.52;;
16029;SDS011;34770;49.272;11.070;2023-04-03T15:08:44;1.98;;;1.88;;
16029;SDS011;34770;49.272;11.070;2023-04-03T15:11:10;5.28;;;3.25;;
16029;SDS011;34770;49.272;11.070;2023-04-03T15:13:36;2.80;;;2.50;;
16029;SDS011;34770;49.272;11.070;2023-04-03T15:16:02;3.33;;;3.03;;
16029;SDS011;34770;49.272;11.070;2023-04-03T15:18:28;2.65;;;2.40;;
16029;SDS011;34770;49.272;11.070;2023-04-03T15:20:55;2.40;;;2.20;;
16029;SDS011;34770;49.272;11.070;2023-04-03T15:23:20;2.38;;;2.17;;
16029;SDS011;34770;49.272;11.070;2023-04-03T15:25:50;4.57;;;3.28;;
16029;SDS011;34770;49.272;11.070;2023-04-03T15:28:22;3.17;;;2.85;;
16029;SDS011;34770;49.272;11.070;2023-04-03T15:30:48;6.05;;;3.72;;
16029;SDS011;34770;49.272;11.070;2023-04-03T15:33:14;4.13;;;3.08;;
16029;SDS011;34770;49.272;11.070;2023-04-03T15:35:40;4.25;;;2.65;;
16029;SDS011;34770;49.272;11.070;2023-04-03T15:38:06;4.38;;;3.67;;
16029;SDS011;34770;49.272;11.070;2023-04-03T15:40:31;3.05;;;2.83;;
16029;SDS011;34770;49.272;11.070;2023-04-03T15:42:56;4.65;;;3.75;;
16029;SDS011;34770;49.272;11.070;2023-04-03T15:45:21;3.97;;;3.03;;
16029;SDS011;34770;49.272;11.070;2023-04-03T15:47:47;2.90;;;2.20;;
16029;SDS011;34770;49.272;11.070;2023-04-03T15:50:12;5.63;;;2.05;;
16029;SDS011;34770;49.272;11.070;2023-04-03T15:52:38;3.67;;;1.88;;
16029;SDS011;34770;49.272;11.070;2023-04-03T15:55:03;5.35;;;3.33;;